sensor_id;sensor_type;location;lat;lon;timestamp;temperature;humidity
10129;DHT22;5104;50.720;7.044;2022-07-29T00:01:51;18.50;89.00
10129;DHT22;5104;50.720;7.044;2022-07-29T00:04:19;18.50;64.30
10129;DHT22;5104;50.720;7.044;2022-07-29T00:06:46;18.50;70.80
10129;DHT22;5104;50.720;7.044;2022-07-29T00:09:14;18.50;56.60
10129;DHT22;5104;50.720;7.044;2022-07-29T00:11:41;18.50;88.70
10129;DHT22;5104;50.720;7.044;2022-07-29T00:14:08;18.40;92.30
10129;DHT22;5104;50.720;7.044;2022-07-29T00:16:35;18.40;97.80
10129;DHT22;5104;50.720;7.044;2022-07-29T00:19:02;18.40;52.50
10129;DHT22;5104;50.720;7.044;2022-07-29T00:21:29;18.50;39.00
10129;DHT22;5104;50.720;7.044;2022-07-29T00:23:55;18.50;76.40
10129;DHT22;5104;50.720;7.044;2022-07-29T00:26:24;18.50;99.90
10129;DHT22;5104;50.720;7.044;2022-07-29T00:28:53;18.50;99.90
10129;DHT22;5104;50.720;7.044;2022-07-29T00:31:19;18.40;99.90
10129;DHT22;5104;50.720;7.044;2022-07-29T00:33:46;18.30;99.90
10129;DHT22;5104;50.720;7.044;2022-07-29T00:36:13;18.30;99.90
10129;DHT22;5104;50.720;7.044;2022-07-29T00:38:39;18.30;99.90
10129;DHT22;5104;50.720;7.044;2022-07-29T00:41:09;18.30;99.90
10129;DHT22;5104;50.720;7.044;2022-07-29T00:43:38;18.30;99.90
10129;DHT22;5104;50.720;7.044;2022-07-29T00:46:05;18.30;99.90
10129;DHT22;5104;50.720;7.044;2022-07-29T00:48:31;18.30;99.50
10129;DHT22;5104;50.720;7.044;2022-07-29T00:51:00;18.30;99.90
10129;DHT22;5104;50.720;7.044;2022-07-29T00:53:27;18.30;99.90
10129;DHT22;5104;50.720;7.044;2022-07-29T00:55:54;18.30;99.90
10129;DHT22;5104;50.720;7.044;2022-07-29T00:58:21;18.30;99.90
10129;DHT22;5104;50.720;7.044;2022-07-29T01:00:50;18.30;99.90
10129;DHT22;5104;50.720;7.044;2022-07-29T01:03:17;18.20;99.90
10129;DHT22;5104;50.720;7.044;2022-07-29T01:05:45;18.20;99.90
10129;DHT22;5104;50.720;7.044;2022-07-29T01:08:14;18.10;99.90
10129;DHT22;5104;50.720;7.044;2022-07-29T01:10:42;18.10;99.90
10129;DHT22;5104;50.720;7.044;2022-07-29T01:13:11;18.10;99.90
10129;DHT22;5104;50.720;7.044;2022-07-29T01:15:43;18.10;99.90
10129;DHT22;5104;50.720;7.044;2022-07-29T01:18:16;18.00;99.90
10129;DHT22;5104;50.720;7.044;2022-07-29T01:20:58;18.00;99.90
10129;DHT22;5104;50.720;7.044;2022-07-29T01:23:56;18.00;99.90
10129;DHT22;5104;50.720;7.044;2022-07-29T01:26:34;17.90;1.00
10129;DHT22;5104;50.720;7.044;2022-07-29T01:29:11;17.80;1.00
10129;DHT22;5104;50.720;7.044;2022-07-29T01:31:47;17.80;99.90
10129;DHT22;5104;50.720;7.044;2022-07-29T01:34:20;17.80;99.90
10129;DHT22;5104;50.720;7.044;2022-07-29T01:36:51;17.80;1.00
10129;DHT22;5104;50.720;7.044;2022-07-29T01:39:26;17.80;1.00
10129;DHT22;5104;50.720;7.044;2022-07-29T01:41:58;17.70;1.00
10129;DHT22;5104;50.720;7.044;2022-07-29T01:44:31;17.80;1.00
10129;DHT22;5104;50.720;7.044;2022-07-29T01:47:11;17.70;1.00
10129;DHT22;5104;50.720;7.044;2022-07-29T01:49:42;17.60;1.00
10129;DHT22;5104;50.720;7.044;2022-07-29T01:52:19;17.50;1.00
10129;DHT22;5104;50.720;7.044;2022-07-29T01:54:52;17.50;1.00
10129;DHT22;5104;50.720;7.044;2022-07-29T01:57:25;17.40;1.00
10129;DHT22;5104;50.720;7.044;2022-07-29T01:59:55;17.40;1.00
10129;DHT22;5104;50.720;7.044;2022-07-29T02:02:23;17.30;1.00
10129;DHT22;5104;50.720;7.044;2022-07-29T02:04:51;17.30;1.00
10129;DHT22;5104;50.720;7.044;2022-07-29T02:07:22;17.20;1.00
10129;DHT22;5104;50.720;7.044;2022-07-29T02:09:50;17.20;1.00
10129;DHT22;5104;50.720;7.044;2022-07-29T02:12:19;17.10;1.00
10129;DHT22;5104;50.720;7.044;2022-07-29T02:14:49;17.10;99.90
10129;DHT22;5104;50.720;7.044;2022-07-29T02:17:23;17.00;99.90
10129;DHT22;5104;50.720;7.044;2022-07-29T02:19:54;17.00;99.90
10129;DHT22;5104;50.720;7.044;2022-07-29T02:22:24;16.90;99.90
10129;DHT22;5104;50.720;7.044;2022-07-29T02:24:52;16.90;99.90
10129;DHT22;5104;50.720;7.044;2022-07-29T02:27:20;16.80;1.00
10129;DHT22;5104;50.720;7.044;2022-07-29T02:29:49;16.80;1.00
10129;DHT22;5104;50.720;7.044;2022-07-29T02:32:19;16.70;1.00
10129;DHT22;5104;50.720;7.044;2022-07-29T02:34:49;16.60;1.00
10129;DHT22;5104;50.720;7.044;2022-07-29T02:37:17;16.50;1.00
10129;DHT22;5104;50.720;7.044;2022-07-29T02:39:45;16.40;93.70
10129;DHT22;5104;50.720;7.044;2022-07-29T02:42:14;16.30;99.90
10129;DHT22;5104;50.720;7.044;2022-07-29T02:44:45;16.30;99.90
10129;DHT22;5104;50.720;7.044;2022-07-29T02:47:18;16.30;1.00
10129;DHT22;5104;50.720;7.044;2022-07-29T02:49:51;16.30;1.00
10129;DHT22;5104;50.720;7.044;2022-07-29T02:52:23;16.30;1.00
10129;DHT22;5104;50.720;7.044;2022-07-29T02:54:55;16.30;1.00
10129;DHT22;5104;50.720;7.044;2022-07-29T02:57:30;16.40;99.90
10129;DHT22;5104;50.720;7.044;2022-07-29T03:00:02;16.40;99.90
10129;DHT22;5104;50.720;7.044;2022-07-29T03:02:34;16.40;99.90
10129;DHT22;5104;50.720;7.044;2022-07-29T03:05:02;16.50;1.00
10129;DHT22;5104;50.720;7.044;2022-07-29T03:07:30;16.50;1.00
10129;DHT22;5104;50.720;7.044;2022-07-29T03:09:58;16.60;1.00
10129;DHT22;5104;50.720;7.044;2022-07-29T03:12:25;16.60;1.00
10129;DHT22;5104;50.720;7.044;2022-07-29T03:14:54;16.50;1.00
10129;DHT22;5104;50.720;7.044;2022-07-29T03:17:21;16.60;1.00
10129;DHT22;5104;50.720;7.044;2022-07-29T03:19:50;16.50;1.00
10129;DHT22;5104;50.720;7.044;2022-07-29T03:22:17;16.60;1.00
10129;DHT22;5104;50.720;7.044;2022-07-29T03:24:44;16.60;1.00
10129;DHT22;5104;50.720;7.044;2022-07-29T03:27:11;16.60;1.00
10129;DHT22;5104;50.720;7.044;2022-07-29T03:29:38;16.60;1.00
10129;DHT22;5104;50.720;7.044;2022-07-29T03:32:06;16.60;1.00
10129;DHT22;5104;50.720;7.044;2022-07-29T03:34:33;16.60;1.00
10129;DHT22;5104;50.720;7.044;2022-07-29T03:37:01;16.60;1.00
10129;DHT22;5104;50.720;7.044;2022-07-29T03:39:31;16.60;1.00
10129;DHT22;5104;50.720;7.044;2022-07-29T03:41:59;16.70;99.90
10129;DHT22;5104;50.720;7.044;2022-07-29T03:44:27;16.70;99.90
10129;DHT22;5104;50.720;7.044;2022-07-29T03:46:57;16.70;99.90
10129;DHT22;5104;50.720;7.044;2022-07-29T03:49:28;16.70;99.90
10129;DHT22;5104;50.720;7.044;2022-07-29T03:51:56;16.60;1.00
10129;DHT22;5104;50.720;7.044;2022-07-29T03:54:24;16.60;99.90
10129;DHT22;5104;50.720;7.044;2022-07-29T03:56:52;16.60;99.90
10129;DHT22;5104;50.720;7.044;2022-07-29T03:59:21;16.60;99.90
10129;DHT22;5104;50.720;7.044;2022-07-29T04:01:48;16.60;99.90
10129;DHT22;5104;50.720;7.044;2022-07-29T04:04:15;16.60;99.90
10129;DHT22;5104;50.720;7.044;2022-07-29T04:06:44;16.60;99.90
10129;DHT22;5104;50.720;7.044;2022-07-29T04:09:12;16.60;1.00
10129;DHT22;5104;50.720;7.044;2022-07-29T04:11:41;16.60;1.00
10129;DHT22;5104;50.720;7.044;2022-07-29T04:14:08;16.50;1.00
10129;DHT22;5104;50.720;7.044;2022-07-29T04:16:35;16.50;1.00
10129;DHT22;5104;50.720;7.044;2022-07-29T04:19:02;16.60;1.00
10129;DHT22;5104;50.720;7.044;2022-07-29T04:21:28;16.60;1.00
10129;DHT22;5104;50.720;7.044;2022-07-29T04:23:55;16.70;1.00
10129;DHT22;5104;50.720;7.044;2022-07-29T04:26:22;16.70;1.00
10129;DHT22;5104;50.720;7.044;2022-07-29T04:28:50;16.70;1.00
10129;DHT22;5104;50.720;7.044;2022-07-29T04:31:17;16.60;1.00
10129;DHT22;5104;50.720;7.044;2022-07-29T04:33:44;16.60;2.80
10129;DHT22;5104;50.720;7.044;2022-07-29T04:36:11;16.50;1.00
10129;DHT22;5104;50.720;7.044;2022-07-29T04:38:38;16.60;1.00
10129;DHT22;5104;50.720;7.044;2022-07-29T04:41:05;16.70;1.00
10129;DHT22;5104;50.720;7.044;2022-07-29T04:43:34;16.80;1.00
10129;DHT22;5104;50.720;7.044;2022-07-29T04:46:02;16.90;1.00
10129;DHT22;5104;50.720;7.044;2022-07-29T04:48:29;16.90;1.00
10129;DHT22;5104;50.720;7.044;2022-07-29T04:50:56;17.00;1.00
10129;DHT22;5104;50.720;7.044;2022-07-29T04:53:23;17.00;1.00
10129;DHT22;5104;50.720;7.044;2022-07-29T04:55:50;17.10;1.00
10129;DHT22;5104;50.720;7.044;2022-07-29T04:58:17;17.20;1.00
10129;DHT22;5104;50.720;7.044;2022-07-29T05:00:44;17.20;99.90
10129;DHT22;5104;50.720;7.044;2022-07-29T05:03:12;17.30;99.90
10129;DHT22;5104;50.720;7.044;2022-07-29T05:05:39;17.50;1.00
10129;DHT22;5104;50.720;7.044;2022-07-29T05:08:06;17.70;1.00
10129;DHT22;5104;50.720;7.044;2022-07-29T05:10:33;17.80;1.00
10129;DHT22;5104;50.720;7.044;2022-07-29T05:13:03;18.00;1.00
10129;DHT22;5104;50.720;7.044;2022-07-29T05:15:30;18.20;1.00
10129;DHT22;5104;50.720;7.044;2022-07-29T05:17:57;18.30;1.00
10129;DHT22;5104;50.720;7.044;2022-07-29T05:20:26;18.50;99.90
10129;DHT22;5104;50.720;7.044;2022-07-29T05:22:54;18.60;99.90
10129;DHT22;5104;50.720;7.044;2022-07-29T05:25:20;18.70;99.90
10129;DHT22;5104;50.720;7.044;2022-07-29T05:27:48;18.90;99.90
10129;DHT22;5104;50.720;7.044;2022-07-29T05:30:14;19.10;24.20
10129;DHT22;5104;50.720;7.044;2022-07-29T05:32:41;19.20;3.60
10129;DHT22;5104;50.720;7.044;2022-07-29T05:35:08;19.20;1.00
10129;DHT22;5104;50.720;7.044;2022-07-29T05:37:37;19.30;1.00
10129;DHT22;5104;50.720;7.044;2022-07-29T05:40:05;19.30;1.00
10129;DHT22;5104;50.720;7.044;2022-07-29T05:42:32;19.40;1.00
10129;DHT22;5104;50.720;7.044;2022-07-29T05:44:59;19.40;1.00
10129;DHT22;5104;50.720;7.044;2022-07-29T05:47:26;19.30;1.00
10129;DHT22;5104;50.720;7.044;2022-07-29T05:49:53;19.10;1.00
10129;DHT22;5104;50.720;7.044;2022-07-29T05:52:20;19.00;1.00
10129;DHT22;5104;50.720;7.044;2022-07-29T05:54:49;19.00;1.00
10129;DHT22;5104;50.720;7.044;2022-07-29T05:57:16;19.00;1.00
10129;DHT22;5104;50.720;7.044;2022-07-29T05:59:43;19.00;1.00
10129;DHT22;5104;50.720;7.044;2022-07-29T06:02:10;19.00;1.00
10129;DHT22;5104;50.720;7.044;2022-07-29T06:04:37;19.20;1.00
10129;DHT22;5104;50.720;7.044;2022-07-29T06:07:04;19.40;1.00
10129;DHT22;5104;50.720;7.044;2022-07-29T06:09:31;19.50;1.00
10129;DHT22;5104;50.720;7.044;2022-07-29T06:12:00;19.60;1.00
10129;DHT22;5104;50.720;7.044;2022-07-29T06:14:26;19.60;1.00
10129;DHT22;5104;50.720;7.044;2022-07-29T06:16:54;19.80;1.00
10129;DHT22;5104;50.720;7.044;2022-07-29T06:19:21;20.00;1.00
10129;DHT22;5104;50.720;7.044;2022-07-29T06:21:48;20.20;1.00
10129;DHT22;5104;50.720;7.044;2022-07-29T06:24:15;20.40;1.00
10129;DHT22;5104;50.720;7.044;2022-07-29T06:26:43;20.60;1.00
10129;DHT22;5104;50.720;7.044;2022-07-29T06:29:11;20.80;1.00
10129;DHT22;5104;50.720;7.044;2022-07-29T06:31:38;21.00;1.00
10129;DHT22;5104;50.720;7.044;2022-07-29T06:34:06;21.00;1.00
10129;DHT22;5104;50.720;7.044;2022-07-29T06:36:34;20.80;99.90
10129;DHT22;5104;50.720;7.044;2022-07-29T06:39:01;20.70;1.00
10129;DHT22;5104;50.720;7.044;2022-07-29T06:41:29;20.70;1.00
10129;DHT22;5104;50.720;7.044;2022-07-29T06:43:56;20.70;99.90
10129;DHT22;5104;50.720;7.044;2022-07-29T06:46:24;20.70;99.90
10129;DHT22;5104;50.720;7.044;2022-07-29T06:48:51;20.80;1.00
10129;DHT22;5104;50.720;7.044;2022-07-29T06:51:18;20.70;1.00
10129;DHT22;5104;50.720;7.044;2022-07-29T06:53:46;20.90;99.90
10129;DHT22;5104;50.720;7.044;2022-07-29T06:56:13;20.80;99.90
10129;DHT22;5104;50.720;7.044;2022-07-29T06:58:40;20.90;99.90
10129;DHT22;5104;50.720;7.044;2022-07-29T07:01:07;21.20;99.90
10129;DHT22;5104;50.720;7.044;2022-07-29T07:03:35;21.50;99.90
10129;DHT22;5104;50.720;7.044;2022-07-29T07:06:02;21.60;99.90
10129;DHT22;5104;50.720;7.044;2022-07-29T07:08:29;21.50;99.90
10129;DHT22;5104;50.720;7.044;2022-07-29T07:10:56;21.50;99.90
10129;DHT22;5104;50.720;7.044;2022-07-29T07:13:23;21.60;99.90
10129;DHT22;5104;50.720;7.044;2022-07-29T07:15:50;21.50;99.90
10129;DHT22;5104;50.720;7.044;2022-07-29T07:18:18;21.30;99.90
10129;DHT22;5104;50.720;7.044;2022-07-29T07:20:46;21.30;99.90
10129;DHT22;5104;50.720;7.044;2022-07-29T07:23:14;21.40;99.90
10129;DHT22;5104;50.720;7.044;2022-07-29T07:25:41;21.50;99.90
10129;DHT22;5104;50.720;7.044;2022-07-29T07:28:08;21.60;99.90
10129;DHT22;5104;50.720;7.044;2022-07-29T07:30:35;21.50;99.90
10129;DHT22;5104;50.720;7.044;2022-07-29T07:33:02;21.60;99.90
10129;DHT22;5104;50.720;7.044;2022-07-29T07:35:29;21.70;99.90
10129;DHT22;5104;50.720;7.044;2022-07-29T07:37:57;21.90;99.90
10129;DHT22;5104;50.720;7.044;2022-07-29T07:40:24;21.90;99.90
10129;DHT22;5104;50.720;7.044;2022-07-29T07:42:51;22.10;99.90
10129;DHT22;5104;50.720;7.044;2022-07-29T07:45:18;22.30;99.90
10129;DHT22;5104;50.720;7.044;2022-07-29T07:47:45;22.50;99.90
10129;DHT22;5104;50.720;7.044;2022-07-29T07:50:12;22.70;99.90
10129;DHT22;5104;50.720;7.044;2022-07-29T07:52:50;22.70;99.90
10129;DHT22;5104;50.720;7.044;2022-07-29T07:55:19;22.80;99.90
10129;DHT22;5104;50.720;7.044;2022-07-29T07:57:48;22.60;99.90
10129;DHT22;5104;50.720;7.044;2022-07-29T08:00:15;22.30;99.90
10129;DHT22;5104;50.720;7.044;2022-07-29T08:02:43;22.50;99.90
10129;DHT22;5104;50.720;7.044;2022-07-29T08:05:11;22.60;99.90
10129;DHT22;5104;50.720;7.044;2022-07-29T08:07:42;22.70;99.90
10129;DHT22;5104;50.720;7.044;2022-07-29T08:10:09;23.10;99.90
10129;DHT22;5104;50.720;7.044;2022-07-29T08:12:37;23.10;99.90
10129;DHT22;5104;50.720;7.044;2022-07-29T08:15:05;23.40;99.90
10129;DHT22;5104;50.720;7.044;2022-07-29T08:17:33;23.50;99.90
10129;DHT22;5104;50.720;7.044;2022-07-29T08:20:00;23.50;94.40
10129;DHT22;5104;50.720;7.044;2022-07-29T08:22:26;23.50;88.90
10129;DHT22;5104;50.720;7.044;2022-07-29T08:24:53;23.60;68.60
10129;DHT22;5104;50.720;7.044;2022-07-29T08:27:21;23.70;52.40
10129;DHT22;5104;50.720;7.044;2022-07-29T08:29:50;23.50;57.20
10129;DHT22;5104;50.720;7.044;2022-07-29T08:32:16;23.10;94.90
10129;DHT22;5104;50.720;7.044;2022-07-29T08:34:43;23.20;83.40
10129;DHT22;5104;50.720;7.044;2022-07-29T08:37:12;23.30;85.80
10129;DHT22;5104;50.720;7.044;2022-07-29T08:39:38;23.50;75.40
10129;DHT22;5104;50.720;7.044;2022-07-29T08:42:06;24.10;87.30
10129;DHT22;5104;50.720;7.044;2022-07-29T08:44:35;24.40;45.30
10129;DHT22;5104;50.720;7.044;2022-07-29T08:47:04;24.50;18.30
10129;DHT22;5104;50.720;7.044;2022-07-29T08:49:33;24.50;1.00
10129;DHT22;5104;50.720;7.044;2022-07-29T08:52:02;24.60;1.00
10129;DHT22;5104;50.720;7.044;2022-07-29T08:54:29;24.60;1.00
10129;DHT22;5104;50.720;7.044;2022-07-29T08:56:57;24.50;1.00
10129;DHT22;5104;50.720;7.044;2022-07-29T08:59:27;24.30;8.00
10129;DHT22;5104;50.720;7.044;2022-07-29T09:01:54;24.10;1.00
10129;DHT22;5104;50.720;7.044;2022-07-29T09:04:25;23.80;4.10
10129;DHT22;5104;50.720;7.044;2022-07-29T09:06:54;23.80;5.50
10129;DHT22;5104;50.720;7.044;2022-07-29T09:09:23;24.10;1.00
10129;DHT22;5104;50.720;7.044;2022-07-29T09:11:50;24.30;1.00
10129;DHT22;5104;50.720;7.044;2022-07-29T09:14:19;24.40;1.00
10129;DHT22;5104;50.720;7.044;2022-07-29T09:16:52;24.60;1.00
10129;DHT22;5104;50.720;7.044;2022-07-29T09:19:25;24.70;1.00
10129;DHT22;5104;50.720;7.044;2022-07-29T09:21:53;24.60;1.00
10129;DHT22;5104;50.720;7.044;2022-07-29T09:24:35;24.70;1.00
10129;DHT22;5104;50.720;7.044;2022-07-29T09:27:09;25.00;1.00
10129;DHT22;5104;50.720;7.044;2022-07-29T09:29:37;24.90;1.00
10129;DHT22;5104;50.720;7.044;2022-07-29T09:32:08;24.70;1.00
10129;DHT22;5104;50.720;7.044;2022-07-29T09:34:37;24.60;1.00
10129;DHT22;5104;50.720;7.044;2022-07-29T09:37:04;24.70;1.00
10129;DHT22;5104;50.720;7.044;2022-07-29T09:39:32;24.70;1.00
10129;DHT22;5104;50.720;7.044;2022-07-29T09:42:01;24.70;1.00
10129;DHT22;5104;50.720;7.044;2022-07-29T09:44:41;24.70;1.00
10129;DHT22;5104;50.720;7.044;2022-07-29T09:47:09;24.60;1.00
10129;DHT22;5104;50.720;7.044;2022-07-29T09:49:51;24.80;1.00
10129;DHT22;5104;50.720;7.044;2022-07-29T09:52:19;24.80;1.00
10129;DHT22;5104;50.720;7.044;2022-07-29T09:54:46;24.70;1.00
10129;DHT22;5104;50.720;7.044;2022-07-29T09:57:23;24.80;1.00
10129;DHT22;5104;50.720;7.044;2022-07-29T09:59:56;24.90;1.00
10129;DHT22;5104;50.720;7.044;2022-07-29T10:02:27;25.20;1.00
10129;DHT22;5104;50.720;7.044;2022-07-29T10:04:56;25.80;1.00
10129;DHT22;5104;50.720;7.044;2022-07-29T10:07:24;26.30;1.00
10129;DHT22;5104;50.720;7.044;2022-07-29T10:09:53;26.60;1.00
10129;DHT22;5104;50.720;7.044;2022-07-29T10:12:21;26.20;1.00
10129;DHT22;5104;50.720;7.044;2022-07-29T10:14:49;26.60;1.00
10129;DHT22;5104;50.720;7.044;2022-07-29T10:17:17;26.70;1.00
10129;DHT22;5104;50.720;7.044;2022-07-29T10:19:44;26.90;1.00
10129;DHT22;5104;50.720;7.044;2022-07-29T10:22:13;27.00;1.00
10129;DHT22;5104;50.720;7.044;2022-07-29T10:24:40;27.00;1.00
10129;DHT22;5104;50.720;7.044;2022-07-29T10:27:08;27.20;1.00
10129;DHT22;5104;50.720;7.044;2022-07-29T10:29:35;27.00;1.00
10129;DHT22;5104;50.720;7.044;2022-07-29T10:32:24;27.40;1.00
10129;DHT22;5104;50.720;7.044;2022-07-29T10:35:06;27.20;1.00
10129;DHT22;5104;50.720;7.044;2022-07-29T10:37:52;27.40;1.00
10129;DHT22;5104;50.720;7.044;2022-07-29T10:40:28;27.40;1.00
10129;DHT22;5104;50.720;7.044;2022-07-29T10:43:19;27.20;1.00
10129;DHT22;5104;50.720;7.044;2022-07-29T10:45:47;27.30;1.00
10129;DHT22;5104;50.720;7.044;2022-07-29T10:48:14;27.10;1.00
10129;DHT22;5104;50.720;7.044;2022-07-29T10:50:52;26.90;1.00
10129;DHT22;5104;50.720;7.044;2022-07-29T10:53:22;27.20;1.00
10129;DHT22;5104;50.720;7.044;2022-07-29T10:55:50;26.60;1.00
10129;DHT22;5104;50.720;7.044;2022-07-29T10:58:19;26.30;1.00
10129;DHT22;5104;50.720;7.044;2022-07-29T11:00:47;26.00;1.00
10129;DHT22;5104;50.720;7.044;2022-07-29T11:03:42;26.30;1.00
10129;DHT22;5104;50.720;7.044;2022-07-29T11:06:09;26.50;1.00
10129;DHT22;5104;50.720;7.044;2022-07-29T11:08:38;26.70;1.00
10129;DHT22;5104;50.720;7.044;2022-07-29T11:11:30;26.60;1.00
10129;DHT22;5104;50.720;7.044;2022-07-29T11:13:57;26.60;1.00
10129;DHT22;5104;50.720;7.044;2022-07-29T11:16:24;26.60;1.00
10129;DHT22;5104;50.720;7.044;2022-07-29T11:19:19;26.20;1.00
10129;DHT22;5104;50.720;7.044;2022-07-29T11:21:47;26.30;1.00
10129;DHT22;5104;50.720;7.044;2022-07-29T11:24:19;26.30;1.00
10129;DHT22;5104;50.720;7.044;2022-07-29T11:27:09;26.40;1.00
10129;DHT22;5104;50.720;7.044;2022-07-29T11:29:40;26.70;1.00
10129;DHT22;5104;50.720;7.044;2022-07-29T11:32:11;26.80;1.00
10129;DHT22;5104;50.720;7.044;2022-07-29T11:34:38;27.00;1.00
10129;DHT22;5104;50.720;7.044;2022-07-29T11:37:22;27.10;1.00
10129;DHT22;5104;50.720;7.044;2022-07-29T11:40:12;27.00;1.00
10129;DHT22;5104;50.720;7.044;2022-07-29T11:42:42;27.00;1.00
10129;DHT22;5104;50.720;7.044;2022-07-29T11:45:11;27.00;1.00
10129;DHT22;5104;50.720;7.044;2022-07-29T11:47:46;27.20;1.00
10129;DHT22;5104;50.720;7.044;2022-07-29T11:50:15;26.90;1.00
10129;DHT22;5104;50.720;7.044;2022-07-29T11:52:44;26.70;1.00
10129;DHT22;5104;50.720;7.044;2022-07-29T11:55:17;26.70;1.00
10129;DHT22;5104;50.720;7.044;2022-07-29T11:57:48;26.70;1.00
10129;DHT22;5104;50.720;7.044;2022-07-29T12:00:29;26.20;1.00
10129;DHT22;5104;50.720;7.044;2022-07-29T12:02:58;26.60;1.00
10129;DHT22;5104;50.720;7.044;2022-07-29T12:05:44;27.00;1.00
10129;DHT22;5104;50.720;7.044;2022-07-29T12:08:14;27.10;1.00
10129;DHT22;5104;50.720;7.044;2022-07-29T12:10:43;27.70;1.00
10129;DHT22;5104;50.720;7.044;2022-07-29T12:13:12;28.00;1.00
10129;DHT22;5104;50.720;7.044;2022-07-29T12:15:39;28.30;1.00
10129;DHT22;5104;50.720;7.044;2022-07-29T12:18:11;28.40;1.00
10129;DHT22;5104;50.720;7.044;2022-07-29T12:20:38;28.30;1.00
10129;DHT22;5104;50.720;7.044;2022-07-29T12:23:06;27.80;1.00
10129;DHT22;5104;50.720;7.044;2022-07-29T12:25:34;28.10;1.00
10129;DHT22;5104;50.720;7.044;2022-07-29T12:28:05;27.80;1.00
10129;DHT22;5104;50.720;7.044;2022-07-29T12:30:39;28.10;1.00
10129;DHT22;5104;50.720;7.044;2022-07-29T12:33:17;28.20;1.00
10129;DHT22;5104;50.720;7.044;2022-07-29T12:35:46;28.30;1.00
10129;DHT22;5104;50.720;7.044;2022-07-29T12:38:14;28.00;1.00
10129;DHT22;5104;50.720;7.044;2022-07-29T12:40:42;28.20;1.00
10129;DHT22;5104;50.720;7.044;2022-07-29T12:43:13;28.30;1.00
10129;DHT22;5104;50.720;7.044;2022-07-29T12:45:42;27.80;1.00
10129;DHT22;5104;50.720;7.044;2022-07-29T12:48:10;27.80;1.00
10129;DHT22;5104;50.720;7.044;2022-07-29T12:50:52;27.80;1.00
10129;DHT22;5104;50.720;7.044;2022-07-29T12:53:19;27.80;1.00
10129;DHT22;5104;50.720;7.044;2022-07-29T12:55:48;28.00;1.00
10129;DHT22;5104;50.720;7.044;2022-07-29T12:58:28;27.70;1.00
10129;DHT22;5104;50.720;7.044;2022-07-29T13:01:00;27.90;1.00
10129;DHT22;5104;50.720;7.044;2022-07-29T13:03:27;28.10;1.00
10129;DHT22;5104;50.720;7.044;2022-07-29T13:05:54;28.30;1.00
10129;DHT22;5104;50.720;7.044;2022-07-29T13:08:21;28.40;1.00
10129;DHT22;5104;50.720;7.044;2022-07-29T13:10:48;28.20;1.00
10129;DHT22;5104;50.720;7.044;2022-07-29T13:13:15;28.00;1.00
10129;DHT22;5104;50.720;7.044;2022-07-29T13:15:45;27.50;1.00
10129;DHT22;5104;50.720;7.044;2022-07-29T13:18:29;27.70;1.00
10129;DHT22;5104;50.720;7.044;2022-07-29T13:20:56;28.10;1.00
10129;DHT22;5104;50.720;7.044;2022-07-29T13:23:23;28.20;1.00
10129;DHT22;5104;50.720;7.044;2022-07-29T13:25:50;28.10;1.00
10129;DHT22;5104;50.720;7.044;2022-07-29T13:28:17;28.50;1.00
10129;DHT22;5104;50.720;7.044;2022-07-29T13:30:45;28.30;1.00
10129;DHT22;5104;50.720;7.044;2022-07-29T13:33:12;28.50;1.00
10129;DHT22;5104;50.720;7.044;2022-07-29T13:35:40;28.60;1.00
10129;DHT22;5104;50.720;7.044;2022-07-29T13:38:07;28.40;1.00
10129;DHT22;5104;50.720;7.044;2022-07-29T13:43:49;28.50;1.00
10129;DHT22;5104;50.720;7.044;2022-07-29T13:46:17;28.70;1.00
10129;DHT22;5104;50.720;7.044;2022-07-29T13:48:44;28.60;1.00
10129;DHT22;5104;50.720;7.044;2022-07-29T13:51:11;28.30;1.00
10129;DHT22;5104;50.720;7.044;2022-07-29T13:53:37;28.10;1.00
10129;DHT22;5104;50.720;7.044;2022-07-29T13:56:04;28.00;1.00
10129;DHT22;5104;50.720;7.044;2022-07-29T13:58:32;28.40;1.00
10129;DHT22;5104;50.720;7.044;2022-07-29T14:00:59;28.00;1.00
10129;DHT22;5104;50.720;7.044;2022-07-29T14:03:27;28.30;1.00
10129;DHT22;5104;50.720;7.044;2022-07-29T14:05:54;28.00;1.00
10129;DHT22;5104;50.720;7.044;2022-07-29T14:08:21;28.00;1.00
10129;DHT22;5104;50.720;7.044;2022-07-29T14:10:48;28.30;1.00
10129;DHT22;5104;50.720;7.044;2022-07-29T14:13:15;28.60;1.00
10129;DHT22;5104;50.720;7.044;2022-07-29T14:15:42;28.80;1.00
10129;DHT22;5104;50.720;7.044;2022-07-29T14:18:09;28.50;1.00
10129;DHT22;5104;50.720;7.044;2022-07-29T14:20:37;28.50;1.00
10129;DHT22;5104;50.720;7.044;2022-07-29T14:23:04;28.40;1.00
10129;DHT22;5104;50.720;7.044;2022-07-29T14:25:31;28.50;1.00
10129;DHT22;5104;50.720;7.044;2022-07-29T14:27:58;28.30;1.00
10129;DHT22;5104;50.720;7.044;2022-07-29T14:30:25;28.20;1.00
10129;DHT22;5104;50.720;7.044;2022-07-29T14:32:52;28.60;1.00
10129;DHT22;5104;50.720;7.044;2022-07-29T14:35:19;28.50;1.00
10129;DHT22;5104;50.720;7.044;2022-07-29T14:37:47;28.70;1.00
10129;DHT22;5104;50.720;7.044;2022-07-29T14:40:14;29.40;1.00
10129;DHT22;5104;50.720;7.044;2022-07-29T14:42:41;29.60;1.00
10129;DHT22;5104;50.720;7.044;2022-07-29T14:45:09;30.40;1.00
10129;DHT22;5104;50.720;7.044;2022-07-29T14:47:38;30.40;1.00
10129;DHT22;5104;50.720;7.044;2022-07-29T14:50:06;30.00;1.00
10129;DHT22;5104;50.720;7.044;2022-07-29T14:52:34;29.90;1.00
10129;DHT22;5104;50.720;7.044;2022-07-29T14:55:03;30.40;1.00
10129;DHT22;5104;50.720;7.044;2022-07-29T14:57:30;30.90;1.00
10129;DHT22;5104;50.720;7.044;2022-07-29T14:59:57;31.20;1.00
10129;DHT22;5104;50.720;7.044;2022-07-29T15:02:24;30.70;1.00
10129;DHT22;5104;50.720;7.044;2022-07-29T15:04:51;29.90;1.00
10129;DHT22;5104;50.720;7.044;2022-07-29T15:07:18;29.90;1.00
10129;DHT22;5104;50.720;7.044;2022-07-29T15:09:45;30.10;1.00
10129;DHT22;5104;50.720;7.044;2022-07-29T15:12:13;30.60;1.00
10129;DHT22;5104;50.720;7.044;2022-07-29T15:14:40;30.60;1.00
10129;DHT22;5104;50.720;7.044;2022-07-29T15:17:07;30.20;1.00
10129;DHT22;5104;50.720;7.044;2022-07-29T15:19:35;30.20;1.00
10129;DHT22;5104;50.720;7.044;2022-07-29T15:22:02;30.80;1.00
10129;DHT22;5104;50.720;7.044;2022-07-29T15:24:30;30.40;1.00
10129;DHT22;5104;50.720;7.044;2022-07-29T15:26:57;31.20;1.00
10129;DHT22;5104;50.720;7.044;2022-07-29T15:29:25;31.20;1.00
10129;DHT22;5104;50.720;7.044;2022-07-29T15:31:52;31.70;1.00
10129;DHT22;5104;50.720;7.044;2022-07-29T15:34:19;32.10;1.00
10129;DHT22;5104;50.720;7.044;2022-07-29T15:36:49;32.10;1.00
10129;DHT22;5104;50.720;7.044;2022-07-29T15:39:15;32.30;1.00
10129;DHT22;5104;50.720;7.044;2022-07-29T15:41:42;32.60;1.00
10129;DHT22;5104;50.720;7.044;2022-07-29T15:44:09;32.50;1.00
10129;DHT22;5104;50.720;7.044;2022-07-29T15:46:37;32.60;1.00
10129;DHT22;5104;50.720;7.044;2022-07-29T15:49:18;32.30;1.00
10129;DHT22;5104;50.720;7.044;2022-07-29T15:51:45;31.40;1.00
10129;DHT22;5104;50.720;7.044;2022-07-29T15:54:12;31.10;1.00
10129;DHT22;5104;50.720;7.044;2022-07-29T15:56:39;30.20;1.00
10129;DHT22;5104;50.720;7.044;2022-07-29T15:59:06;29.70;1.00
10129;DHT22;5104;50.720;7.044;2022-07-29T16:01:33;28.90;1.00
10129;DHT22;5104;50.720;7.044;2022-07-29T16:04:01;28.50;1.00
10129;DHT22;5104;50.720;7.044;2022-07-29T16:06:28;28.30;1.00
10129;DHT22;5104;50.720;7.044;2022-07-29T16:08:55;28.90;1.00
10129;DHT22;5104;50.720;7.044;2022-07-29T16:11:23;29.90;1.00
10129;DHT22;5104;50.720;7.044;2022-07-29T16:13:50;30.20;1.00